Time,TemperatureF,DewpointF,PressureIn,WindDirection,WindDirectionDegrees,WindSpeedMPH,WindSpeedGustMPH,Humidity,HourlyPrecipIn,Conditions,Clouds,dailyrainin,SoftwareType,DateUTC
2013-03-06 00:00:00,42.3,41.2,29.56,WSW,253,0.0,10.0,96,0.00,,CLR,0.46,VWS V14.00,2013-03-06 05:00:00,
2013-03-06 00:01:00,42.3,41.2,29.56,WSW,257,5.0,5.0,96,0.00,,CLR,0.00,VWS V14.00,2013-03-06 05:01:00,
2013-03-06 00:05:00,41.9,40.8,29.56,West,266,5.0,15.0,96,0.00,,CLR,0.00,VWS V14.00,2013-03-06 05:05:00,
2013-03-06 00:11:00,41.5,40.2,29.56,West,262,9.0,15.0,95,0.00,,CLR,0.00,VWS V14.00,2013-03-06 05:11:00,
2013-03-06 00:16:00,41.5,39.3,29.56,West,281,2.0,15.0,92,0.00,,CLR,0.00,VWS V14.00,2013-03-06 05:16:00,
2013-03-06 00:21:00,41.3,37.7,29.56,WNW,285,9.0,16.0,87,0.00,,CLR,0.00,VWS V14.00,2013-03-06 05:21:00,
2013-03-06 00:25:00,41.3,36.8,29.56,West,267,17.0,18.0,84,0.00,,CLR,0.00,VWS V14.00,2013-03-06 05:25:00,
2013-03-06 00:30:00,41.2,35.5,29.56,WSW,245,7.0,17.0,80,0.00,,CLR,0.00,VWS V14.00,2013-03-06 05:30:00,
2013-03-06 00:35:00,41.3,34.3,29.56,WNW,300,6.0,21.0,76,0.00,,CLR,0.00,VWS V14.00,2013-03-06 05:35:00,
2013-03-06 00:40:00,41.1,33.8,29.56,West,264,14.0,22.0,75,0.00,,CLR,0.00,VWS V14.00,2013-03-06 05:40:00,
2013-03-06 00:45:00,41.0,33.0,29.57,West,269,10.0,22.0,73,0.00,,CLR,0.00,VWS V14.00,2013-03-06 05:45:00,
2013-03-06 00:50:00,40.9,32.9,29.57,WSW,255,11.0,22.0,73,0.00,,CLR,0.00,VWS V14.00,2013-03-06 05:50:00,
2013-03-06 00:55:00,40.6,32.6,29.57,WSW,252,2.0,22.0,73,0.00,,CLR,0.00,VWS V14.00,2013-03-06 05:55:00,
2013-03-06 01:00:00,40.3,32.0,29.57,WNW,295,12.0,18.0,72,0.00,,CLR,0.00,VWS V14.00,2013-03-06 06:00:00,
2013-03-06 01:05:00,40.4,31.4,29.57,WNW,283,6.0,19.0,70,0.00,,CLR,0.00,VWS V14.00,2013-03-06 06:05:00,
2013-03-06 01:10:00,40.6,30.1,29.57,West,272,14.0,25.0,66,0.00,,CLR,0.00,VWS V14.00,2013-03-06 06:10:00,
2013-03-06 01:15:00,40.9,29.7,29.58,West,274,7.0,28.0,64,0.00,,CLR,0.00,VWS V14.00,2013-03-06 06:15:00,
2013-03-06 01:20:00,40.9,29.7,29.58,WSW,239,11.0,28.0,64,0.00,,CLR,0.00,VWS V14.00,2013-03-06 06:20:00,
2013-03-06 01:25:00,40.8,28.8,29.58,West,268,6.0,28.0,62,0.00,,CLR,0.00,VWS V14.00,2013-03-06 06:25:00,
2013-03-06 01:30:00,40.9,28.9,29.60,WSW,243,5.0,17.0,62,0.00,,CLR,0.00,VWS V14.00,2013-03-06 06:30:00,
2013-03-06 01:35:00,40.6,29.0,29.60,WSW,258,7.0,17.0,63,0.00,,CLR,0.00,VWS V14.00,2013-03-06 06:35:00,
2013-03-06 01:40:00,40.3,29.1,29.60,West,274,9.0,17.0,64,0.00,,CLR,0.00,VWS V14.00,2013-03-06 06:40:00,
2013-03-06 01:45:00,40.1,28.5,29.60,West,273,6.0,17.0,63,0.00,,CLR,0.00,VWS V14.00,2013-03-06 06:45:00,
2013-03-06 01:50:00,39.9,28.3,29.60,WSW,239,6.0,17.0,63,0.00,,CLR,0.00,VWS V14.00,2013-03-06 06:50:00,
2013-03-06 01:55:00,39.8,28.6,29.60,WSW,245,6.0,17.0,64,0.00,,CLR,0.00,VWS V14.00,2013-03-06 06:55:00,
2013-03-06 02:00:00,39.7,27.8,29.60,West,271,4.0,15.0,62,0.00,,CLR,0.00,VWS V14.00,2013-03-06 07:00:00,
2013-03-06 02:05:00,39.7,28.1,29.60,West,271,5.0,16.0,63,0.00,,CLR,0.00,VWS V14.00,2013-03-06 07:05:00,
2013-03-06 02:10:00,39.7,27.8,29.60,WSW,243,7.0,17.0,62,0.00,,CLR,0.00,VWS V14.00,2013-03-06 07:10:00,
2013-03-06 02:15:00,39.7,28.5,29.60,West,262,5.0,17.0,64,0.00,,CLR,0.00,VWS V14.00,2013-03-06 07:15:00,
2013-03-06 02:20:00,39.6,28.1,29.60,WSW,248,11.0,17.0,63,0.00,,CLR,0.00,VWS V14.00,2013-03-06 07:20:00,
2013-03-06 02:25:00,39.6,28.4,29.60,WSW,238,3.0,17.0,64,0.00,,CLR,0.00,VWS V14.00,2013-03-06 07:25:00,
2013-03-06 02:30:00,39.4,28.2,29.60,West,268,11.0,13.0,64,0.00,,CLR,0.00,VWS V14.00,2013-03-06 07:30:00,
2013-03-06 02:35:00,39.3,28.2,29.60,SW,232,6.0,16.0,64,0.00,,CLR,0.00,VWS V14.00,2013-03-06 07:35:00,
2013-03-06 02:40:00,39.2,27.7,29.60,West,259,7.0,17.0,63,0.00,,CLR,0.00,VWS V14.00,2013-03-06 07:40:00,
2013-03-06 02:45:00,39.1,27.6,29.60,SW,233,3.0,19.0,63,0.00,,CLR,0.00,VWS V14.00,2013-03-06 07:45:00,
2013-03-06 02:50:00,38.9,27.4,29.60,West,268,8.0,19.0,63,0.00,,CLR,0.00,VWS V14.00,2013-03-06 07:50:00,
2013-03-06 02:55:00,38.8,27.7,29.60,WNW,288,0.0,19.0,64,0.00,,CLR,0.00,VWS V14.00,2013-03-06 07:55:00,
2013-03-06 03:00:00,38.6,27.1,29.60,WNW,297,11.0,11.0,63,0.00,,CLR,0.00,VWS V14.00,2013-03-06 08:00:00,
2013-03-06 03:05:00,38.4,27.3,29.60,SW,224,4.0,13.0,64,0.00,,CLR,0.00,VWS V14.00,2013-03-06 08:05:00,
2013-03-06 03:10:00,38.1,27.4,29.60,West,281,9.0,13.0,65,0.00,,CLR,0.00,VWS V14.00,2013-03-06 08:10:00,
2013-03-06 03:15:00,37.9,27.6,29.60,WNW,286,2.0,13.0,66,0.00,,CLR,0.00,VWS V14.00,2013-03-06 08:15:00,
2013-03-06 03:20:00,37.6,27.3,29.60,West,264,3.0,13.0,66,0.00,,CLR,0.00,VWS V14.00,2013-03-06 08:20:00,
2013-03-06 03:25:00,37.4,27.1,29.60,West,270,5.0,13.0,66,0.00,,CLR,0.00,VWS V14.00,2013-03-06 08:25:00,
2013-03-06 03:30:00,37.1,27.2,29.61,WSW,240,1.0,7.0,67,0.00,,CLR,0.00,VWS V14.00,2013-03-06 08:30:00,
2013-03-06 03:35:00,36.9,27.0,29.61,WSW,255,4.0,11.0,67,0.00,,CLR,0.00,VWS V14.00,2013-03-06 08:35:00,
2013-03-06 03:40:00,36.6,26.7,29.61,West,271,5.0,12.0,67,0.00,,CLR,0.00,VWS V14.00,2013-03-06 08:40:00,
2013-03-06 03:45:00,36.6,26.3,29.61,West,281,7.0,12.0,66,0.00,,CLR,0.00,VWS V14.00,2013-03-06 08:45:00,
2013-03-06 03:50:00,36.7,26.1,29.61,West,260,6.0,12.0,65,0.00,,CLR,0.00,VWS V14.00,2013-03-06 08:50:00,
2013-03-06 03:55:00,36.7,26.1,29.61,WSW,238,5.0,13.0,65,0.00,,CLR,0.00,VWS V14.00,2013-03-06 08:55:00,
2013-03-06 04:00:00,36.6,26.0,29.62,WSW,243,6.0,11.0,65,0.00,,CLR,0.00,VWS V14.00,2013-03-06 09:00:00,
2013-03-06 04:05:00,36.4,25.8,29.62,WSW,256,5.0,11.0,65,0.00,,CLR,0.00,VWS V14.00,2013-03-06 09:05:00,
2013-03-06 04:10:00,36.4,25.8,29.62,WSW,243,5.0,11.0,65,0.00,,CLR,0.00,VWS V14.00,2013-03-06 09:10:00,
2013-03-06 04:15:00,36.2,25.6,29.62,SW,217,6.0,11.0,65,0.00,,CLR,0.00,VWS V14.00,2013-03-06 09:15:00,
2013-03-06 04:20:00,36.0,25.8,29.62,SW,229,7.0,14.0,66,0.00,,CLR,0.00,VWS V14.00,2013-03-06 09:20:00,
2013-03-06 04:25:00,35.9,25.7,29.62,SW,236,11.0,14.0,66,0.00,,CLR,0.00,VWS V14.00,2013-03-06 09:25:00,
2013-03-06 04:30:00,35.9,25.7,29.62,West,271,5.0,9.0,66,0.00,,CLR,0.00,VWS V14.00,2013-03-06 09:30:00,
2013-03-06 04:35:00,35.8,25.6,29.62,WNW,303,10.0,10.0,66,0.00,,CLR,0.00,VWS V14.00,2013-03-06 09:35:00,
2013-03-06 04:40:00,35.8,25.2,29.62,West,273,9.0,23.0,65,0.00,,CLR,0.00,VWS V14.00,2013-03-06 09:40:00,
2013-03-06 04:45:00,35.9,24.9,29.64,WSW,245,10.0,23.0,64,0.00,,CLR,0.00,VWS V14.00,2013-03-06 09:45:00,
2013-03-06 04:50:00,35.9,25.3,29.64,WSW,255,11.0,23.0,65,0.00,,CLR,0.00,VWS V14.00,2013-03-06 09:50:00,
2013-03-06 04:55:00,35.6,25.0,29.64,West,280,5.0,23.0,65,0.00,,CLR,0.00,VWS V14.00,2013-03-06 09:55:00,
2013-03-06 05:00:00,35.6,25.0,29.64,WSW,246,10.0,11.0,65,0.00,,CLR,0.00,VWS V14.00,2013-03-06 10:00:00,
2013-03-06 05:05:00,35.5,24.9,29.64,West,270,9.0,16.0,65,0.00,,CLR,0.00,VWS V14.00,2013-03-06 10:05:00,
2013-03-06 05:11:00,35.3,25.1,29.64,West,273,11.0,17.0,66,0.00,,CLR,0.00,VWS V14.00,2013-03-06 10:11:00,
2013-03-06 05:16:00,35.1,24.9,29.64,SW,226,2.0,17.0,66,0.00,,CLR,0.00,VWS V14.00,2013-03-06 10:16:00,
2013-03-06 05:21:00,35.0,24.8,29.64,West,262,10.0,21.0,66,0.00,,CLR,0.00,VWS V14.00,2013-03-06 10:21:00,
2013-03-06 05:26:00,34.8,25.0,29.64,SW,226,3.0,21.0,67,0.00,,CLR,0.00,VWS V14.00,2013-03-06 10:26:00,
2013-03-06 05:30:00,34.6,25.1,29.64,WSW,252,17.0,17.0,68,0.00,,CLR,0.00,VWS V14.00,2013-03-06 10:30:00,
2013-03-06 05:35:00,34.4,24.6,29.64,WNW,283,4.0,17.0,67,0.00,,CLR,0.00,VWS V14.00,2013-03-06 10:35:00,
2013-03-06 05:40:00,34.4,24.6,29.64,SW,235,4.0,21.0,67,0.00,,CLR,0.00,VWS V14.00,2013-03-06 10:40:00,
2013-03-06 05:45:00,34.4,24.6,29.65,SSW,212,3.0,21.0,67,0.00,,CLR,0.00,VWS V14.00,2013-03-06 10:45:00,
2013-03-06 05:50:00,34.3,24.1,29.65,SW,226,5.0,21.0,66,0.00,,CLR,0.00,VWS V14.00,2013-03-06 10:50:00,
2013-03-06 05:55:00,34.2,24.0,29.65,SW,232,4.0,21.0,66,0.00,,CLR,0.00,VWS V14.00,2013-03-06 10:55:00,
2013-03-06 06:00:00,34.1,24.3,29.65,SW,231,4.0,14.0,67,0.00,,CLR,0.00,VWS V14.00,2013-03-06 11:00:00,
2013-03-06 06:05:00,34.1,24.0,29.65,SW,225,3.0,18.0,66,0.00,,CLR,0.00,VWS V14.00,2013-03-06 11:05:00,
2013-03-06 06:10:00,34.1,24.0,29.65,West,280,6.0,18.0,66,0.00,,CLR,0.00,VWS V14.00,2013-03-06 11:10:00,
2013-03-06 06:15:00,34.1,23.6,29.67,WSW,245,3.0,19.0,65,0.00,,CLR,0.00,VWS V14.00,2013-03-06 11:15:00,
2013-03-06 06:20:00,34.0,23.5,29.67,WSW,252,16.0,19.0,65,0.00,,CLR,0.00,VWS V14.00,2013-03-06 11:20:00,
2013-03-06 06:25:00,33.8,22.9,29.67,West,266,7.0,19.0,64,0.00,,CLR,0.00,VWS V14.00,2013-03-06 11:25:00,
2013-03-06 06:30:00,33.9,23.4,29.67,SW,215,4.0,17.0,65,0.00,,CLR,0.00,VWS V14.00,2013-03-06 11:30:00,
2013-03-06 06:35:00,33.9,23.0,29.67,WSW,251,6.0,17.0,64,0.00,,CLR,0.00,VWS V14.00,2013-03-06 11:35:00,
2013-03-06 06:40:00,33.8,22.9,29.67,WSW,243,13.0,17.0,64,0.00,,CLR,0.00,VWS V14.00,2013-03-06 11:40:00,
2013-03-06 06:45:00,33.6,23.1,29.67,SW,232,2.0,17.0,65,0.00,,CLR,0.00,VWS V14.00,2013-03-06 11:45:00,
2013-03-06 06:50:00,33.4,22.9,29.67,SW,215,5.0,17.0,65,0.00,,CLR,0.00,VWS V14.00,2013-03-06 11:50:00,
2013-03-06 06:55:00,33.3,23.2,29.67,SW,219,6.0,17.0,66,0.00,,CLR,0.00,VWS V14.00,2013-03-06 11:55:00,
2013-03-06 07:00:00,33.3,23.2,29.66,SW,218,7.0,17.0,66,0.00,,CLR,0.00,VWS V14.00,2013-03-06 12:00:00,
2013-03-06 07:05:00,33.4,22.9,29.66,SSW,195,21.0,21.0,65,0.00,,CLR,0.00,VWS V14.00,2013-03-06 12:05:00,
2013-03-06 07:10:00,33.5,23.0,29.66,SW,217,14.0,23.0,65,0.00,,CLR,0.00,VWS V14.00,2013-03-06 12:10:00,
2013-03-06 07:15:00,33.5,23.0,29.67,SW,236,7.0,23.0,65,0.00,,CLR,0.00,VWS V14.00,2013-03-06 12:15:00,
2013-03-06 07:20:00,33.5,23.0,29.67,SW,219,4.0,23.0,65,0.00,,CLR,0.00,VWS V14.00,2013-03-06 12:20:00,
2013-03-06 07:25:00,33.5,23.4,29.67,WSW,240,3.0,23.0,66,0.00,,CLR,0.00,VWS V14.00,2013-03-06 12:25:00,
2013-03-06 07:30:00,33.4,23.3,29.68,South,191,7.0,13.0,66,0.00,,CLR,0.00,VWS V14.00,2013-03-06 12:30:00,
2013-03-06 07:35:00,33.5,23.4,29.68,SSW,202,6.0,16.0,66,0.00,,CLR,0.00,VWS V14.00,2013-03-06 12:35:00,
2013-03-06 07:40:00,33.5,23.7,29.68,West,262,9.0,16.0,67,0.00,,CLR,0.00,VWS V14.00,2013-03-06 12:40:00,
2013-03-06 07:45:00,33.7,23.2,29.68,SW,236,7.0,18.0,65,0.00,,CLR,0.00,VWS V14.00,2013-03-06 12:45:00,
2013-03-06 07:50:00,33.9,23.8,29.68,WSW,245,5.0,18.0,66,0.00,,CLR,0.00,VWS V14.00,2013-03-06 12:50:00,
2013-03-06 07:55:00,34.1,24.0,29.68,SW,223,13.0,18.0,66,0.00,,CLR,0.00,VWS V14.00,2013-03-06 12:55:00,
2013-03-06 08:00:00,34.4,23.9,29.68,WSW,241,11.0,14.0,65,0.00,,CLR,0.00,VWS V14.00,2013-03-06 13:00:00,
2013-03-06 08:05:00,34.4,23.9,29.68,WSW,240,5.0,17.0,65,0.00,,CLR,0.00,VWS V14.00,2013-03-06 13:05:00,
2013-03-06 08:10:00,34.7,23.4,29.68,SSW,199,6.0,17.0,63,0.00,,CLR,0.00,VWS V14.00,2013-03-06 13:10:00,
2013-03-06 08:15:00,35.1,23.8,29.69,SW,218,13.0,21.0,63,0.00,,CLR,0.00,VWS V14.00,2013-03-06 13:15:00,
2013-03-06 08:20:00,35.5,24.2,29.69,SW,219,10.0,21.0,63,0.00,,CLR,0.00,VWS V14.00,2013-03-06 13:20:00,
2013-03-06 08:25:00,35.8,24.1,29.69,SW,216,9.0,21.0,62,0.00,,CLR,0.00,VWS V14.00,2013-03-06 13:25:00,
2013-03-06 08:30:00,36.0,24.3,29.70,SW,223,5.0,18.0,62,0.00,,CLR,0.00,VWS V14.00,2013-03-06 13:30:00,
2013-03-06 08:35:00,36.0,23.9,29.70,SSW,213,7.0,18.0,61,0.00,,CLR,0.00,VWS V14.00,2013-03-06 13:35:00,
2013-03-06 08:40:00,36.2,24.1,29.70,West,266,10.0,18.0,61,0.00,,CLR,0.00,VWS V14.00,2013-03-06 13:40:00,
2013-03-06 08:45:00,36.4,23.9,29.71,SW,233,14.0,19.0,60,0.00,,CLR,0.00,VWS V14.00,2013-03-06 13:45:00,
2013-03-06 08:50:00,36.6,24.0,29.71,SW,236,7.0,19.0,60,0.00,,CLR,0.00,VWS V14.00,2013-03-06 13:50:00,
2013-03-06 08:55:00,36.9,23.9,29.71,WNW,295,9.0,19.0,59,0.00,,CLR,0.00,VWS V14.00,2013-03-06 13:55:00,
2013-03-06 09:00:00,37.2,24.6,29.70,SW,219,3.0,13.0,60,0.00,,CLR,0.00,VWS V14.00,2013-03-06 14:00:00,
2013-03-06 09:05:00,37.4,24.0,29.70,SSW,201,13.0,23.0,58,0.00,,CLR,0.00,VWS V14.00,2013-03-06 14:05:00,
2013-03-06 09:10:00,37.6,24.2,29.70,West,274,22.0,23.0,58,0.00,,CLR,0.00,VWS V14.00,2013-03-06 14:10:00,
2013-03-06 09:15:00,37.7,24.3,29.72,WNW,287,4.0,23.0,58,0.00,,CLR,0.00,VWS V14.00,2013-03-06 14:15:00,
2013-03-06 09:20:00,37.9,24.5,29.72,WSW,248,11.0,23.0,58,0.00,,CLR,0.00,VWS V14.00,2013-03-06 14:20:00,
2013-03-06 09:25:00,38.3,24.4,29.72,SW,217,10.0,23.0,57,0.00,,CLR,0.00,VWS V14.00,2013-03-06 14:25:00,
2013-03-06 09:30:00,38.5,24.6,29.73,West,281,10.0,18.0,57,0.00,,CLR,0.00,VWS V14.00,2013-03-06 14:30:00,
2013-03-06 09:35:00,38.6,24.3,29.73,SSW,200,6.0,19.0,56,0.00,,CLR,0.00,VWS V14.00,2013-03-06 14:35:00,
2013-03-06 09:40:00,38.9,25.0,29.73,SW,235,13.0,24.0,57,0.00,,CLR,0.00,VWS V14.00,2013-03-06 14:40:00,
2013-03-06 09:45:00,39.3,25.4,29.73,SW,233,12.0,24.0,57,0.00,,CLR,0.00,VWS V14.00,2013-03-06 14:45:00,
2013-03-06 09:50:00,39.7,25.3,29.73,WSW,246,13.0,24.0,56,0.00,,CLR,0.00,VWS V14.00,2013-03-06 14:50:00,
2013-03-06 09:55:00,40.0,24.7,29.73,West,269,3.0,24.0,54,0.00,,CLR,0.00,VWS V14.00,2013-03-06 14:55:00,
2013-03-06 10:00:00,40.1,25.2,29.74,NW,307,18.0,18.0,55,0.00,,CLR,0.00,VWS V14.00,2013-03-06 15:00:00,
2013-03-06 10:05:00,40.7,25.8,29.74,West,270,7.0,18.0,55,0.00,,CLR,0.00,VWS V14.00,2013-03-06 15:05:00,
2013-03-06 10:10:00,41.4,26.0,29.74,WNW,283,14.0,19.0,54,0.00,,CLR,0.00,VWS V14.00,2013-03-06 15:10:00,
2013-03-06 10:15:00,41.9,27.8,29.74,WSW,254,2.0,21.0,57,0.00,,CLR,0.00,VWS V14.00,2013-03-06 15:15:00,
2013-03-06 10:20:00,42.4,27.4,29.74,WSW,242,3.0,21.0,55,0.00,,CLR,0.00,VWS V14.00,2013-03-06 15:20:00,
2013-03-06 10:25:00,42.0,26.6,29.74,WSW,250,11.0,21.0,54,0.00,,CLR,0.00,VWS V14.00,2013-03-06 15:25:00,
2013-03-06 10:30:00,41.1,26.2,29.75,SSE,157,5.0,19.0,55,0.00,,CLR,0.00,VWS V14.00,2013-03-06 15:30:00,
2013-03-06 10:35:00,41.2,26.3,29.75,SW,220,5.0,19.0,55,0.00,,CLR,0.00,VWS V14.00,2013-03-06 15:35:00,
2013-03-06 10:40:00,41.2,26.3,29.75,NW,305,6.0,22.0,55,0.00,,CLR,0.00,VWS V14.00,2013-03-06 15:40:00,
2013-03-06 10:45:00,41.8,27.3,29.75,West,276,7.0,26.0,56,0.00,,CLR,0.00,VWS V14.00,2013-03-06 15:45:00,
2013-03-06 10:50:00,42.5,27.0,29.75,SW,230,6.0,26.0,54,0.00,,CLR,0.00,VWS V14.00,2013-03-06 15:50:00,
2013-03-06 10:55:00,42.5,26.1,29.75,West,262,4.0,26.0,52,0.00,,CLR,0.00,VWS V14.00,2013-03-06 15:55:00,
2013-03-06 11:00:00,42.3,27.3,29.76,WSW,239,5.0,10.0,55,0.00,,CLR,0.00,VWS V14.00,2013-03-06 16:00:00,
2013-03-06 11:05:00,42.7,26.8,29.76,SW,227,14.0,15.0,53,0.00,,CLR,0.00,VWS V14.00,2013-03-06 16:05:00,
2013-03-06 11:10:00,42.4,26.5,29.76,SW,215,6.0,20.0,53,0.00,,CLR,0.00,VWS V14.00,2013-03-06 16:10:00,
2013-03-06 11:15:00,42.3,26.9,29.77,WSW,243,5.0,20.0,54,0.00,,CLR,0.00,VWS V14.00,2013-03-06 16:15:00,
2013-03-06 11:20:00,42.0,26.6,29.77,West,263,7.0,20.0,54,0.00,,CLR,0.00,VWS V14.00,2013-03-06 16:20:00,
2013-03-06 11:25:00,42.1,26.2,29.77,SSW,200,3.0,20.0,53,0.00,,CLR,0.00,VWS V14.00,2013-03-06 16:25:00,
2013-03-06 11:30:00,42.4,27.4,29.77,West,268,7.0,11.0,55,0.00,,CLR,0.00,VWS V14.00,2013-03-06 16:30:00,
2013-03-06 11:35:00,43.2,27.7,29.77,SW,214,8.0,15.0,54,0.00,,CLR,0.00,VWS V14.00,2013-03-06 16:35:00,
2013-03-06 11:40:00,43.7,27.2,29.77,NW,304,10.0,20.0,52,0.00,,CLR,0.00,VWS V14.00,2013-03-06 16:40:00,
2013-03-06 11:45:00,44.2,29.5,29.77,WSW,242,13.0,20.0,56,0.00,,CLR,0.00,VWS V14.00,2013-03-06 16:45:00,
2013-03-06 11:50:00,44.2,28.2,29.77,WSW,245,4.0,20.0,53,0.00,,CLR,0.00,VWS V14.00,2013-03-06 16:50:00,
2013-03-06 11:55:00,44.5,27.5,29.77,WNW,290,7.0,20.0,51,0.00,,CLR,0.00,VWS V14.00,2013-03-06 16:55:00,
2013-03-06 12:00:00,44.1,28.1,29.77,WSW,240,9.0,14.0,53,0.00,,CLR,0.00,VWS V14.00,2013-03-06 17:00:00,
2013-03-06 12:05:00,44.5,28.5,29.77,SSW,207,5.0,15.0,53,0.00,,CLR,0.00,VWS V14.00,2013-03-06 17:05:00,
2013-03-06 12:10:00,44.8,28.7,29.77,SW,219,5.0,15.0,53,0.00,,CLR,0.00,VWS V14.00,2013-03-06 17:10:00,
2013-03-06 12:15:00,45.0,28.0,29.77,West,262,4.0,17.0,51,0.00,,CLR,0.00,VWS V14.00,2013-03-06 17:15:00,
2013-03-06 12:20:00,45.0,28.0,29.77,SW,224,5.0,17.0,51,0.00,,CLR,0.00,VWS V14.00,2013-03-06 17:20:00,
2013-03-06 12:25:00,45.0,27.5,29.77,West,268,0.0,17.0,50,0.00,,CLR,0.00,VWS V14.00,2013-03-06 17:25:00,
2013-03-06 12:30:00,45.7,30.0,29.77,WSW,249,9.0,11.0,54,0.00,,CLR,0.00,VWS V14.00,2013-03-06 17:30:00,
2013-03-06 12:35:00,46.3,29.2,29.77,West,277,5.0,11.0,51,0.00,,CLR,0.00,VWS V14.00,2013-03-06 17:35:00,
2013-03-06 12:40:00,46.3,29.6,29.77,NW,319,4.0,11.0,52,0.00,,CLR,0.00,VWS V14.00,2013-03-06 17:40:00,
2013-03-06 12:45:00,46.5,28.9,29.77,WSW,247,13.0,17.0,50,0.00,,CLR,0.00,VWS V14.00,2013-03-06 17:45:00,
2013-03-06 12:50:00,46.7,28.6,29.77,WNW,291,15.0,17.0,49,0.00,,CLR,0.00,VWS V14.00,2013-03-06 17:50:00,
2013-03-06 12:55:00,46.4,30.2,29.77,SW,236,9.0,17.0,53,0.00,,CLR,0.00,VWS V14.00,2013-03-06 17:55:00,
2013-03-06 13:00:00,46.6,29.0,29.77,NW,305,12.0,17.0,50,0.00,,CLR,0.00,VWS V14.00,2013-03-06 18:00:00,
2013-03-06 13:05:00,46.9,29.7,29.77,WNW,303,21.0,21.0,51,0.00,,CLR,0.00,VWS V14.00,2013-03-06 18:05:00,
2013-03-06 13:10:00,46.9,29.7,29.77,SW,224,3.0,21.0,51,0.00,,CLR,0.00,VWS V14.00,2013-03-06 18:10:00,
2013-03-06 13:15:00,47.1,30.4,29.77,WSW,237,8.0,21.0,52,0.00,,CLR,0.00,VWS V14.00,2013-03-06 18:15:00,
2013-03-06 13:20:00,47.2,29.5,29.77,NNW,335,10.0,21.0,50,0.00,,CLR,0.00,VWS V14.00,2013-03-06 18:20:00,
2013-03-06 13:25:00,47.1,29.9,29.77,West,270,7.0,21.0,51,0.00,,CLR,0.00,VWS V14.00,2013-03-06 18:25:00,
2013-03-06 13:30:00,47.2,30.0,29.78,WSW,246,9.0,15.0,51,0.00,,CLR,0.00,VWS V14.00,2013-03-06 18:30:00,
2013-03-06 13:35:00,47.1,28.9,29.78,NNW,331,4.0,15.0,49,0.00,,CLR,0.00,VWS V14.00,2013-03-06 18:35:00,
2013-03-06 13:40:00,46.3,28.7,29.78,WSW,243,5.0,15.0,50,0.00,,CLR,0.00,VWS V14.00,2013-03-06 18:40:00,
2013-03-06 13:45:00,46.4,29.8,29.78,South,173,10.0,15.0,52,0.00,,CLR,0.00,VWS V14.00,2013-03-06 18:45:00,
2013-03-06 13:50:00,47.4,29.7,29.78,SW,219,8.0,15.0,50,0.00,,CLR,0.00,VWS V14.00,2013-03-06 18:50:00,
2013-03-06 13:55:00,47.6,32.7,29.78,SW,232,9.0,15.0,56,0.00,,CLR,0.00,VWS V14.00,2013-03-06 18:55:00,
2013-03-06 14:00:00,48.5,31.7,29.79,WSW,250,13.0,16.0,52,0.00,,CLR,0.00,VWS V14.00,2013-03-06 19:00:00,
2013-03-06 14:05:00,47.5,30.3,29.79,WSW,238,10.0,19.0,51,0.00,,CLR,0.00,VWS V14.00,2013-03-06 19:05:00,
2013-03-06 14:10:00,46.6,30.9,29.79,WSW,255,5.0,19.0,54,0.00,,CLR,0.00,VWS V14.00,2013-03-06 19:10:00,
2013-03-06 14:15:00,46.0,30.3,29.79,SSW,205,3.0,20.0,54,0.00,,CLR,0.00,VWS V14.00,2013-03-06 19:15:00,
2013-03-06 14:20:00,45.0,29.4,29.79,WSW,250,6.0,20.0,54,0.00,,CLR,0.00,VWS V14.00,2013-03-06 19:20:00,
2013-03-06 14:25:00,44.0,28.9,29.79,SSW,205,18.0,23.0,55,0.00,,CLR,0.00,VWS V14.00,2013-03-06 19:25:00,
2013-03-06 14:30:00,43.3,29.5,29.81,WSW,243,1.0,10.0,58,0.00,,CLR,0.00,VWS V14.00,2013-03-06 19:30:00,
2013-03-06 14:35:00,43.0,28.8,29.81,SW,214,14.0,16.0,57,0.00,,CLR,0.00,VWS V14.00,2013-03-06 19:35:00,
2013-03-06 14:40:00,42.8,28.6,29.81,WSW,258,7.0,18.0,57,0.00,,CLR,0.00,VWS V14.00,2013-03-06 19:40:00,
2013-03-06 14:45:00,43.4,29.2,29.82,SSW,207,3.0,18.0,57,0.00,,CLR,0.00,VWS V14.00,2013-03-06 19:45:00,
2013-03-06 14:50:00,45.0,30.3,29.82,SSW,205,12.0,18.0,56,0.00,,CLR,0.00,VWS V14.00,2013-03-06 19:50:00,
2013-03-06 14:55:00,45.7,30.0,29.82,SW,214,10.0,18.0,54,0.00,,CLR,0.00,VWS V14.00,2013-03-06 19:55:00,
2013-03-06 15:00:00,45.4,29.7,29.82,SSW,198,12.0,15.0,54,0.00,,CLR,0.00,VWS V14.00,2013-03-06 20:00:00,
2013-03-06 15:05:00,45.2,29.6,29.82,SW,230,9.0,16.0,54,0.00,,CLR,0.00,VWS V14.00,2013-03-06 20:05:00,
2013-03-06 15:10:00,45.0,30.3,29.82,West,271,8.0,17.0,56,0.00,,CLR,0.00,VWS V14.00,2013-03-06 20:10:00,
2013-03-06 15:15:00,45.3,29.6,29.82,SSW,212,10.0,20.0,54,0.00,,CLR,0.00,VWS V14.00,2013-03-06 20:15:00,
2013-03-06 15:20:00,45.7,30.0,29.82,West,268,6.0,20.0,54,0.00,,CLR,0.00,VWS V14.00,2013-03-06 20:20:00,
2013-03-06 15:25:00,46.0,30.3,29.82,WSW,257,2.0,20.0,54,0.00,,CLR,0.00,VWS V14.00,2013-03-06 20:25:00,
2013-03-06 15:30:00,46.1,30.4,29.83,South,184,9.0,13.0,54,0.00,,CLR,0.00,VWS V14.00,2013-03-06 20:30:00,
2013-03-06 15:35:00,46.3,30.1,29.83,SW,233,13.0,15.0,53,0.00,,CLR,0.00,VWS V14.00,2013-03-06 20:35:00,
2013-03-06 15:40:00,46.4,30.2,29.83,SSE,168,10.0,15.0,53,0.00,,CLR,0.00,VWS V14.00,2013-03-06 20:40:00,
2013-03-06 15:45:00,46.8,30.6,29.83,SW,219,4.0,15.0,53,0.00,,CLR,0.00,VWS V14.00,2013-03-06 20:45:00,
2013-03-06 15:50:00,46.9,29.7,29.83,West,270,5.0,16.0,51,0.00,,CLR,0.00,VWS V14.00,2013-03-06 20:50:00,
2013-03-06 15:55:00,46.7,31.0,29.83,WNW,283,5.0,16.0,54,0.00,,CLR,0.00,VWS V14.00,2013-03-06 20:55:00,
2013-03-06 16:00:00,46.3,29.6,29.84,SW,224,3.0,12.0,52,0.00,,CLR,0.00,VWS V14.00,2013-03-06 21:00:00,
2013-03-06 16:05:00,46.0,30.8,29.84,SW,229,9.0,12.0,55,0.00,,CLR,0.00,VWS V14.00,2013-03-06 21:05:00,
2013-03-06 16:10:00,45.6,29.5,29.84,WSW,240,5.0,18.0,53,0.00,,CLR,0.00,VWS V14.00,2013-03-06 21:10:00,
2013-03-06 16:15:00,45.6,29.9,29.85,WSW,248,10.0,18.0,54,0.00,,CLR,0.00,VWS V14.00,2013-03-06 21:15:00,
2013-03-06 16:20:00,45.6,29.9,29.85,WNW,288,12.0,18.0,54,0.00,,CLR,0.00,VWS V14.00,2013-03-06 21:20:00,
2013-03-06 16:25:00,45.7,29.6,29.85,WSW,252,9.0,18.0,53,0.00,,CLR,0.00,VWS V14.00,2013-03-06 21:25:00,
2013-03-06 16:30:00,45.7,30.5,29.86,West,276,13.0,18.0,55,0.00,,CLR,0.00,VWS V14.00,2013-03-06 21:30:00,
2013-03-06 16:31:00,45.8,29.7,29.86,WNW,288,2.0,14.0,53,0.00,,CLR,0.00,VWS V14.00,2013-03-06 21:31:00,
2013-03-06 16:36:00,45.6,29.5,29.86,WNW,291,5.0,15.0,53,0.00,,CLR,0.00,VWS V14.00,2013-03-06 21:36:00,
2013-03-06 16:41:00,45.7,30.0,29.86,WSW,248,9.0,15.0,54,0.00,,CLR,0.00,VWS V14.00,2013-03-06 21:41:00,
2013-03-06 16:46:00,45.4,29.7,29.87,NNW,329,10.0,16.0,54,0.00,,CLR,0.00,VWS V14.00,2013-03-06 21:46:00,
2013-03-06 16:51:00,45.0,30.3,29.87,NNW,328,11.0,16.0,56,0.00,,CLR,0.00,VWS V14.00,2013-03-06 21:51:00,
2013-03-06 16:56:00,44.9,30.6,29.87,West,272,6.0,16.0,57,0.00,,CLR,0.00,VWS V14.00,2013-03-06 21:56:00,
2013-03-06 17:00:00,44.9,29.7,29.88,NW,309,11.0,17.0,55,0.00,,CLR,0.00,VWS V14.00,2013-03-06 22:00:00,
2013-03-06 17:01:00,44.7,30.0,29.88,NNW,335,12.0,19.0,56,0.00,,CLR,0.00,VWS V14.00,2013-03-06 22:01:00,
2013-03-06 17:06:00,44.2,29.5,29.88,NNW,333,11.0,19.0,56,0.00,,CLR,0.00,VWS V14.00,2013-03-06 22:06:00,
2013-03-06 17:11:00,43.9,30.1,29.88,NNW,338,11.0,19.0,58,0.00,,CLR,0.00,VWS V14.00,2013-03-06 22:11:00,
2013-03-06 17:16:00,43.7,29.5,29.89,WNW,300,6.0,19.0,57,0.00,,CLR,0.00,VWS V14.00,2013-03-06 22:16:00,
2013-03-06 17:21:00,43.5,29.3,29.89,NW,322,9.0,19.0,57,0.00,,CLR,0.00,VWS V14.00,2013-03-06 22:21:00,
2013-03-06 17:26:00,43.1,29.8,29.89,NW,319,4.0,20.0,59,0.00,,CLR,0.00,VWS V14.00,2013-03-06 22:26:00,
2013-03-06 17:30:00,43.1,30.2,29.91,NW,307,9.0,20.0,60,0.00,,CLR,0.00,VWS V14.00,2013-03-06 22:30:00,
2013-03-06 17:31:00,43.1,29.8,29.91,NW,304,9.0,13.0,59,0.00,,CLR,0.00,VWS V14.00,2013-03-06 22:31:00,
2013-03-06 17:36:00,42.7,29.4,29.91,NW,314,7.0,18.0,59,0.00,,CLR,0.00,VWS V14.00,2013-03-06 22:36:00,
2013-03-06 17:41:00,42.5,29.2,29.91,NNW,342,2.0,18.0,59,0.00,,CLR,0.00,VWS V14.00,2013-03-06 22:41:00,
2013-03-06 17:46:00,42.2,28.9,29.91,NW,309,17.0,18.0,59,0.00,,CLR,0.00,VWS V14.00,2013-03-06 22:46:00,
2013-03-06 17:51:00,41.7,28.4,29.91,NW,322,4.0,19.0,59,0.00,,CLR,0.00,VWS V14.00,2013-03-06 22:51:00,
2013-03-06 17:56:00,41.5,29.1,29.91,NW,326,6.0,19.0,61,0.00,,CLR,0.00,VWS V14.00,2013-03-06 22:56:00,
2013-03-06 18:00:00,41.3,28.5,29.92,NW,311,9.0,21.0,60,0.00,,CLR,0.00,VWS V14.00,2013-03-06 23:00:00,
2013-03-06 18:01:00,41.1,28.7,29.92,NW,323,17.0,20.0,61,0.00,,CLR,0.00,VWS V14.00,2013-03-06 23:01:00,
2013-03-06 18:06:00,40.5,28.1,29.92,NW,315,8.0,25.0,61,0.00,,CLR,0.00,VWS V14.00,2013-03-06 23:06:00,
2013-03-06 18:11:00,40.1,28.1,29.92,WNW,291,11.0,25.0,62,0.00,,CLR,0.00,VWS V14.00,2013-03-06 23:11:00,
2013-03-06 18:16:00,39.7,28.1,29.94,NW,309,15.0,25.0,63,0.00,,CLR,0.00,VWS V14.00,2013-03-06 23:16:00,
2013-03-06 18:21:00,39.3,28.2,29.94,WNW,288,11.0,25.0,64,0.00,,CLR,0.00,VWS V14.00,2013-03-06 23:21:00,
2013-03-06 18:26:00,38.9,27.8,29.94,NW,309,7.0,25.0,64,0.00,,CLR,0.00,VWS V14.00,2013-03-06 23:26:00,
2013-03-06 18:30:00,38.7,28.0,29.96,NW,313,4.0,25.0,65,0.00,,CLR,0.00,VWS V14.00,2013-03-06 23:30:00,
2013-03-06 18:31:00,38.6,27.9,29.96,NW,314,4.0,7.0,65,0.00,,CLR,0.00,VWS V14.00,2013-03-06 23:31:00,
2013-03-06 18:36:00,38.3,27.6,29.96,North,357,2.0,17.0,65,0.00,,CLR,0.00,VWS V14.00,2013-03-06 23:36:00,
2013-03-06 18:41:00,38.0,28.0,29.96,NW,320,3.0,17.0,67,0.00,,CLR,0.00,VWS V14.00,2013-03-06 23:41:00,
2013-03-06 18:46:00,37.7,27.8,29.97,North,0,5.0,17.0,67,0.00,,CLR,0.00,VWS V14.00,2013-03-06 23:46:00,
2013-03-06 18:51:00,37.6,27.6,29.97,North,351,6.0,17.0,67,0.00,,CLR,0.00,VWS V14.00,2013-03-06 23:51:00,
2013-03-06 18:56:00,37.4,27.5,29.97,NW,325,5.0,17.0,67,0.00,,CLR,0.00,VWS V14.00,2013-03-06 23:56:00,
2013-03-06 19:00:00,37.3,27.7,29.97,NW,325,4.0,17.0,68,0.00,,CLR,0.00,VWS V14.00,2013-03-07 00:00:00,
2013-03-06 19:01:00,37.2,27.3,29.97,NW,304,6.0,11.0,67,0.00,,CLR,0.00,VWS V14.00,2013-03-07 00:01:00,
2013-03-06 19:06:00,37.2,27.6,29.97,NW,308,5.0,13.0,68,0.00,,CLR,0.00,VWS V14.00,2013-03-07 00:06:00,
2013-03-06 19:11:00,37.1,27.5,29.97,NW,304,7.0,13.0,68,0.00,,CLR,0.00,VWS V14.00,2013-03-07 00:11:00,
2013-03-06 19:16:00,37.0,27.4,29.97,NW,312,2.0,13.0,68,0.00,,CLR,0.00,VWS V14.00,2013-03-07 00:16:00,
2013-03-06 19:21:00,36.8,27.2,29.97,WNW,301,9.0,13.0,68,0.00,,CLR,0.00,VWS V14.00,2013-03-07 00:21:00,
2013-03-06 19:26:00,36.7,27.5,29.97,NW,323,6.0,17.0,69,0.00,,CLR,0.00,VWS V14.00,2013-03-07 00:26:00,
2013-03-06 19:30:00,36.7,27.5,29.97,NW,321,9.0,17.0,69,0.00,,CLR,0.00,VWS V14.00,2013-03-07 00:30:00,
2013-03-06 19:31:00,36.6,27.0,29.97,NW,306,5.0,14.0,68,0.00,,CLR,0.00,VWS V14.00,2013-03-07 00:31:00,
2013-03-06 19:36:00,36.7,27.5,29.97,West,271,3.0,14.0,69,0.00,,CLR,0.00,VWS V14.00,2013-03-07 00:36:00,
2013-03-06 19:41:00,36.6,27.0,29.97,NW,321,4.0,14.0,68,0.00,,CLR,0.00,VWS V14.00,2013-03-07 00:41:00,
2013-03-06 19:46:00,36.5,27.0,29.98,WNW,298,5.0,14.0,68,0.00,,CLR,0.00,VWS V14.00,2013-03-07 00:46:00,
2013-03-06 19:51:00,36.5,27.3,29.98,NW,316,4.0,14.0,69,0.00,,CLR,0.00,VWS V14.00,2013-03-07 00:51:00,
2013-03-06 19:56:00,36.5,27.0,29.98,WNW,293,3.0,14.0,68,0.00,,CLR,0.00,VWS V14.00,2013-03-07 00:56:00,
2013-03-06 20:00:00,36.5,27.0,29.97,WNW,287,4.0,14.0,68,0.00,,CLR,0.00,VWS V14.00,2013-03-07 01:00:00,
2013-03-06 20:01:00,36.4,26.9,29.97,NW,316,5.0,6.0,68,0.00,,CLR,0.00,VWS V14.00,2013-03-07 01:01:00,
2013-03-06 20:06:00,36.4,26.9,29.97,WNW,287,7.0,16.0,68,0.00,,CLR,0.00,VWS V14.00,2013-03-07 01:06:00,
2013-03-06 20:11:00,36.4,27.2,29.97,NNW,340,11.0,16.0,69,0.00,,CLR,0.00,VWS V14.00,2013-03-07 01:11:00,
2013-03-06 20:16:00,36.2,27.0,29.97,WNW,293,7.0,16.0,69,0.00,,CLR,0.00,VWS V14.00,2013-03-07 01:16:00,
2013-03-06 20:21:00,36.0,26.8,29.97,WNW,302,12.0,16.0,69,0.00,,CLR,0.00,VWS V14.00,2013-03-07 01:21:00,
2013-03-06 20:26:00,35.9,27.1,29.97,WNW,300,2.0,16.0,70,0.00,,CLR,0.00,VWS V14.00,2013-03-07 01:26:00,
2013-03-06 20:30:00,35.9,27.1,29.97,WNW,291,3.0,16.0,70,0.00,,CLR,0.00,VWS V14.00,2013-03-07 01:30:00,
2013-03-06 20:31:00,35.8,27.0,29.97,WNW,290,1.0,6.0,70,0.00,,CLR,0.00,VWS V14.00,2013-03-07 01:31:00,
2013-03-06 20:36:00,35.6,26.8,29.97,WNW,302,2.0,13.0,70,0.00,,CLR,0.00,VWS V14.00,2013-03-07 01:36:00,
2013-03-06 20:41:00,35.5,27.0,29.97,WNW,301,5.0,13.0,71,0.00,,CLR,0.00,VWS V14.00,2013-03-07 01:41:00,
2013-03-06 20:46:00,35.5,26.7,29.97,WNW,297,2.0,13.0,70,0.00,,CLR,0.00,VWS V14.00,2013-03-07 01:46:00,
2013-03-06 20:51:00,35.5,27.0,29.97,WNW,287,0.0,13.0,71,0.00,,CLR,0.00,VWS V14.00,2013-03-07 01:51:00,
2013-03-06 20:56:00,35.3,26.5,29.97,WNW,287,0.0,13.0,70,0.00,,CLR,0.00,VWS V14.00,2013-03-07 01:56:00,
2013-03-06 21:00:00,35.2,26.4,29.98,WNW,290,1.0,13.0,70,0.00,,CLR,0.00,VWS V14.00,2013-03-07 02:00:00,
2013-03-06 21:01:00,35.1,26.7,29.98,WNW,295,0.0,2.0,71,0.00,,CLR,0.00,VWS V14.00,2013-03-07 02:01:00,
2013-03-06 21:06:00,34.9,26.5,29.98,WNW,284,0.0,4.0,71,0.00,,CLR,0.00,VWS V14.00,2013-03-07 02:06:00,
2013-03-06 21:11:00,34.5,26.4,29.98,West,276,0.0,4.0,72,0.00,,CLR,0.00,VWS V14.00,2013-03-07 02:11:00,
2013-03-06 21:16:00,34.4,26.3,29.98,West,268,0.0,4.0,72,0.00,,CLR,0.00,VWS V14.00,2013-03-07 02:16:00,
2013-03-06 21:21:00,34.2,26.5,29.98,West,267,0.0,4.0,73,0.00,,CLR,0.00,VWS V14.00,2013-03-07 02:21:00,
2013-03-06 21:26:00,34.1,26.4,29.98,WSW,255,0.0,4.0,73,0.00,,CLR,0.00,VWS V14.00,2013-03-07 02:26:00,
2013-03-06 21:30:00,34.0,26.3,29.98,West,261,0.0,4.0,73,0.00,,CLR,0.00,VWS V14.00,2013-03-07 02:30:00,
2013-03-06 21:31:00,34.0,26.3,29.98,West,260,1.0,2.0,73,0.00,,CLR,0.00,VWS V14.00,2013-03-07 02:31:00,
2013-03-06 22:00:00,34.1,26.4,29.99,WSW,245,0.0,3.0,73,0.00,,CLR,0.00,VWS V14.00,2013-03-07 03:00:00,
2013-03-06 22:30:00,33.3,25.9,30.00,WNW,295,0.0,3.0,74,0.00,,CLR,0.00,VWS V14.00,2013-03-07 03:30:00,
2013-03-06 23:00:00,32.9,25.9,30.01,WNW,295,0.0,3.0,75,0.00,,CLR,0.00,VWS V14.00,2013-03-07 04:00:00,
2013-03-06 23:30:00,30.5,25.4,30.01,WSW,258,0.0,3.0,81,0.00,,CLR,0.00,VWS V14.00,2013-03-07 04:30:00,